createdAt,value
2018-09-12T00:02:21.776Z,72.30
2018-09-12T00:04:49.983Z,72.00
2018-09-12T00:07:18.220Z,72.60
2018-09-12T00:09:46.443Z,72.60
2018-09-12T00:12:14.667Z,72.50
2018-09-12T00:14:42.880Z,73.10
2018-09-12T00:17:11.110Z,72.80
2018-09-12T00:19:39.287Z,73.20
2018-09-12T00:22:07.536Z,72.70
2018-09-12T00:24:35.968Z,72.50
2018-09-12T00:27:04.240Z,73.00
2018-09-12T00:29:32.429Z,73.10
2018-09-12T00:32:00.628Z,73.80
2018-09-12T00:34:29.831Z,73.10
2018-09-12T00:36:58.019Z,73.60
2018-09-12T00:39:26.234Z,73.50
2018-09-12T00:41:54.443Z,73.30
2018-09-12T00:44:22.656Z,73.60
2018-09-12T00:46:50.851Z,73.60
2018-09-12T00:49:19.059Z,73.50
2018-09-12T00:51:47.484Z,73.50
2018-09-12T00:54:15.682Z,74.60
2018-09-12T00:56:43.863Z,74.00
2018-09-12T00:59:12.072Z,74.20
2018-09-12T01:01:40.264Z,73.70
2018-09-12T01:04:08.483Z,73.50
2018-09-12T01:06:36.671Z,74.30
2018-09-12T01:09:06.428Z,74.30
2018-09-12T01:11:34.619Z,74.00
2018-09-12T01:14:02.929Z,74.30
2018-09-12T01:16:33.927Z,74.80
2018-09-12T01:19:02.162Z,74.30
2018-09-12T01:21:30.415Z,74.40
2018-09-12T01:23:58.801Z,74.70
2018-09-12T01:26:26.971Z,74.50
2018-09-12T01:28:55.163Z,74.80
2018-09-12T01:31:23.359Z,74.50
2018-09-12T01:33:51.987Z,74.90
2018-09-12T01:36:20.172Z,75.10
2018-09-12T01:38:48.386Z,75.00
2018-09-12T01:41:16.558Z,75.10
2018-09-12T01:43:44.767Z,74.60
2018-09-12T01:46:12.983Z,74.90
2018-09-12T01:48:41.194Z,74.60
2018-09-12T01:51:09.382Z,75.00
2018-09-12T01:53:37.558Z,75.30
2018-09-12T01:56:05.742Z,75.20
2018-09-12T01:58:33.960Z,75.10
2018-09-12T02:01:02.164Z,76.10
2018-09-12T02:03:30.379Z,75.00
2018-09-12T02:05:58.567Z,75.10
2018-09-12T02:08:27.315Z,76.00
2018-09-12T02:10:55.509Z,75.60
2018-09-12T02:13:23.715Z,75.90
2018-09-12T02:15:51.987Z,76.00
2018-09-12T02:18:20.176Z,75.80
2018-09-12T02:20:48.373Z,76.10
2018-09-12T02:23:16.583Z,75.80
2018-09-12T02:25:44.787Z,75.30
2018-09-12T02:28:13.015Z,75.40
2018-09-12T02:30:41.207Z,76.00
2018-09-12T02:33:09.433Z,76.00
2018-09-12T02:35:41.844Z,75.70
2018-09-12T02:38:10.055Z,75.70
2018-09-12T02:40:38.267Z,75.90
2018-09-12T02:43:06.523Z,76.00
2018-09-12T02:45:34.691Z,75.70
2018-09-12T02:48:02.880Z,75.90
2018-09-12T02:50:31.113Z,76.00
2018-09-12T02:52:59.313Z,76.60
2018-09-12T02:55:27.499Z,76.40
2018-09-12T02:57:55.711Z,76.40
2018-09-12T03:00:24.115Z,76.40
2018-09-12T03:02:52.298Z,76.40
2018-09-12T03:05:20.518Z,76.10
2018-09-12T03:07:48.692Z,76.30
2018-09-12T03:10:16.858Z,76.50
2018-09-12T03:12:45.033Z,76.60
2018-09-12T03:15:13.229Z,77.60
2018-09-12T03:17:41.389Z,76.70
2018-09-12T03:20:10.427Z,76.40
2018-09-12T03:22:38.622Z,76.40
2018-09-12T03:25:06.813Z,77.60
2018-09-12T03:27:34.994Z,76.80
2018-09-12T03:30:03.178Z,76.70
2018-09-12T03:32:31.358Z,76.80
2018-09-12T03:34:59.557Z,76.50
2018-09-12T03:37:27.742Z,76.70
2018-09-12T03:39:55.986Z,76.30
2018-09-12T03:42:24.172Z,76.80
2018-09-12T03:44:52.370Z,78.00
2018-09-12T03:47:20.555Z,77.90
2018-09-12T03:49:48.772Z,78.50
2018-09-12T03:52:16.938Z,77.90
2018-09-12T03:54:45.125Z,77.70
2018-09-12T03:57:13.298Z,77.70
2018-09-12T03:59:42.202Z,77.70
2018-09-12T04:02:12.788Z,78.20
2018-09-12T04:04:46.467Z,78.40
2018-09-12T04:07:14.754Z,78.10
2018-09-12T04:09:43.438Z,78.10
2018-09-12T04:12:11.687Z,78.40
2018-09-12T04:14:39.889Z,78.10
2018-09-12T04:17:08.199Z,78.00
2018-09-12T04:19:36.394Z,78.20
2018-09-12T04:22:04.550Z,78.00
2018-09-12T04:24:32.743Z,78.30
2018-09-12T04:27:00.939Z,78.50
2018-09-12T04:29:29.139Z,78.50
2018-09-12T04:31:57.351Z,78.90
2018-09-12T04:34:26.328Z,78.70
2018-09-12T04:36:54.492Z,79.10
2018-09-12T04:39:22.679Z,79.00
2018-09-12T04:41:50.848Z,79.10
2018-09-12T04:44:19.047Z,79.50
2018-09-12T04:46:47.227Z,79.70
2018-09-12T04:49:15.405Z,79.60
2018-09-12T04:51:43.594Z,79.40
2018-09-12T04:54:11.779Z,79.60
2018-09-12T04:56:39.969Z,79.90
2018-09-12T04:59:08.127Z,79.60
2018-09-12T05:01:36.318Z,79.60
2018-09-12T05:04:04.503Z,79.30
2018-09-12T05:06:32.675Z,79.90
2018-09-12T05:09:00.883Z,79.60
2018-09-12T05:11:29.039Z,78.90
2018-09-12T05:13:57.227Z,79.80
2018-09-12T05:16:25.548Z,79.70
2018-09-12T05:18:53.711Z,79.90
2018-09-12T05:21:21.897Z,79.90
2018-09-12T05:23:50.131Z,80.00
2018-09-12T05:26:18.290Z,79.90
2018-09-12T05:28:46.462Z,80.30
2018-09-12T05:31:14.709Z,80.20
2018-09-12T05:33:43.475Z,80.70
2018-09-12T05:36:12.375Z,80.70
2018-09-12T05:38:40.590Z,81.30
2018-09-12T05:41:08.783Z,80.90
2018-09-12T05:43:36.942Z,82.00
2018-09-12T05:46:05.590Z,80.90
2018-09-12T05:48:33.746Z,80.70
2018-09-12T05:51:02.021Z,81.30
2018-09-12T05:53:30.187Z,81.60
2018-09-12T05:55:58.358Z,81.90
2018-09-12T05:58:26.543Z,82.00
2018-09-12T06:00:54.721Z,82.70
2018-09-12T06:03:22.924Z,82.60
2018-09-12T06:05:51.111Z,82.40
2018-09-12T06:08:19.283Z,82.90
2018-09-12T06:10:47.517Z,82.50
2018-09-12T06:13:15.683Z,83.20
2018-09-12T06:15:44.775Z,82.00
2018-09-12T06:18:12.962Z,79.90
2018-09-12T06:20:41.139Z,70.20
2018-09-12T06:23:09.322Z,61.60
2018-09-12T06:25:37.533Z,56.60
2018-09-12T06:28:05.938Z,54.60
2018-09-12T06:30:34.122Z,52.80
2018-09-12T06:33:02.311Z,52.60
2018-09-12T06:35:30.486Z,52.90
2018-09-12T06:37:58.658Z,53.40
2018-09-12T06:40:26.841Z,54.50
2018-09-12T06:42:55.005Z,55.60
2018-09-12T06:45:23.277Z,56.90
2018-09-12T06:47:51.434Z,58.10
2018-09-12T06:50:21.098Z,59.20
2018-09-12T06:52:49.270Z,59.70
2018-09-12T06:55:17.450Z,60.90
2018-09-12T06:57:46.522Z,61.80
2018-09-12T07:00:14.694Z,62.80
2018-09-12T07:02:42.883Z,63.90
2018-09-12T07:05:11.265Z,64.70
2018-09-12T07:07:39.513Z,65.80
2018-09-12T07:10:07.893Z,66.40
2018-09-12T07:12:36.078Z,67.40
2018-09-12T07:15:04.253Z,68.10
2018-09-12T07:17:32.443Z,68.60
2018-09-12T07:20:00.623Z,69.00
2018-09-12T07:22:28.830Z,69.50
2018-09-12T07:24:57.001Z,69.70
2018-09-12T07:27:25.302Z,70.10
2018-09-12T07:29:53.473Z,70.40
2018-09-12T07:32:21.660Z,70.70
2018-09-12T07:34:49.834Z,70.70
2018-09-12T07:37:18.032Z,71.20
2018-09-12T07:39:46.207Z,70.70
2018-09-12T07:42:14.402Z,70.70
2018-09-12T07:44:42.581Z,70.10
2018-09-12T07:47:10.778Z,70.50
2018-09-12T07:49:39.452Z,70.20
2018-09-12T07:52:07.933Z,70.40
2018-09-12T07:54:36.106Z,70.30
2018-09-12T07:57:04.294Z,70.10
2018-09-12T07:59:32.478Z,69.50
2018-09-12T08:02:00.666Z,69.70
2018-09-12T08:04:28.857Z,69.10
2018-09-12T08:06:57.038Z,69.40
2018-09-12T08:09:25.203Z,68.00
2018-09-12T08:11:53.386Z,67.00
2018-09-12T08:14:21.557Z,66.80
2018-09-12T08:16:50.499Z,67.50
2018-09-12T08:19:18.671Z,65.00
2018-09-12T08:21:46.858Z,65.70
2018-09-12T08:24:15.059Z,63.50
2018-09-12T08:26:43.316Z,62.60
2018-09-12T08:29:11.474Z,62.70
2018-09-12T08:31:39.683Z,62.00
2018-09-12T08:34:07.967Z,60.90
2018-09-12T08:36:36.228Z,60.70
2018-09-12T08:39:06.046Z,59.10
2018-09-12T08:41:34.226Z,58.70
2018-09-12T08:44:02.407Z,58.20
2018-09-12T08:46:30.582Z,56.40
2018-09-12T08:48:58.746Z,56.20
2018-09-12T08:51:26.918Z,55.20
2018-09-12T08:53:55.102Z,56.30
2018-09-12T08:56:23.328Z,54.10
2018-09-12T08:58:51.510Z,54.00
2018-09-12T09:01:19.737Z,53.90
2018-09-12T09:03:48.417Z,52.00
2018-09-12T09:06:16.590Z,52.30
2018-09-12T09:08:44.769Z,51.30
2018-09-12T09:11:12.947Z,51.20
2018-09-12T09:13:41.149Z,49.90
2018-09-12T09:16:09.359Z,49.80
2018-09-12T09:18:37.566Z,49.20
2018-09-12T09:21:05.871Z,48.40
2018-09-12T09:23:34.161Z,47.90
2018-09-12T09:26:02.345Z,47.30
2018-09-12T09:28:30.540Z,47.00
2018-09-12T09:30:58.726Z,45.50
2018-09-12T09:33:26.917Z,45.20
2018-09-12T09:35:55.119Z,44.20
2018-09-12T09:38:23.318Z,44.30
2018-09-12T09:40:51.495Z,43.00
2018-09-12T09:43:19.684Z,43.30
2018-09-12T09:45:47.847Z,42.10
2018-09-12T09:48:16.252Z,41.10
2018-09-12T09:50:44.290Z,40.80
2018-09-12T09:53:12.470Z,40.10
2018-09-12T09:55:40.714Z,39.30
2018-09-12T09:58:08.930Z,39.40
2018-09-12T10:00:42.570Z,39.30
2018-09-12T10:03:16.242Z,38.60
2018-09-12T10:05:49.935Z,38.50
2018-09-12T10:08:23.614Z,38.20
2018-09-12T10:10:51.914Z,37.80
2018-09-12T10:13:20.102Z,38.10
2018-09-12T10:15:48.286Z,37.70
2018-09-12T10:18:16.492Z,37.10
2018-09-12T10:20:44.663Z,37.20
2018-09-12T10:23:12.995Z,36.20
2018-09-12T10:25:41.191Z,35.20
2018-09-12T10:28:09.384Z,35.90
2018-09-12T10:30:37.586Z,35.40
2018-09-12T10:33:05.854Z,35.50
2018-09-12T10:35:34.036Z,34.00
2018-09-12T10:38:02.236Z,35.40
2018-09-12T10:40:30.426Z,34.90
2018-09-12T10:42:58.604Z,35.30
2018-09-12T10:45:26.777Z,34.60
2018-09-12T10:47:54.957Z,34.30
2018-09-12T10:50:23.163Z,34.90
2018-09-12T10:52:51.918Z,34.10
2018-09-12T10:55:20.118Z,34.80
2018-09-12T10:57:48.290Z,34.10
2018-09-12T11:00:16.495Z,34.10
2018-09-12T11:02:44.743Z,34.00
2018-09-12T11:05:12.939Z,33.60
2018-09-12T11:07:41.115Z,33.70
2018-09-12T11:10:09.319Z,33.60
2018-09-12T11:12:37.498Z,33.70
2018-09-12T11:15:05.840Z,34.00
2018-09-12T11:17:33.987Z,34.10
2018-09-12T11:20:02.218Z,33.80
2018-09-12T11:22:30.411Z,33.90
2018-09-12T11:24:58.589Z,33.80
2018-09-12T11:27:26.760Z,34.00
2018-09-12T11:29:54.942Z,33.30
2018-09-12T11:32:23.111Z,33.30
2018-09-12T11:34:51.291Z,33.20
2018-09-12T11:37:19.566Z,33.10
2018-09-12T11:39:47.758Z,32.50
2018-09-12T11:42:15.963Z,32.70
2018-09-12T11:44:44.147Z,32.30
2018-09-12T11:47:12.326Z,33.50
2018-09-12T11:49:40.522Z,32.30
2018-09-12T11:52:08.809Z,33.00
2018-09-12T11:54:37.070Z,32.40
2018-09-12T11:57:05.314Z,32.20
2018-09-12T11:59:33.510Z,31.90
2018-09-12T12:02:01.740Z,31.90
2018-09-12T12:04:29.887Z,31.60
2018-09-12T12:06:58.098Z,31.40
2018-09-12T12:09:26.329Z,31.10
2018-09-12T12:11:54.546Z,31.40
2018-09-12T12:14:22.771Z,30.80
2018-09-12T12:16:50.954Z,31.40
2018-09-12T12:19:19.162Z,31.30
2018-09-12T12:21:47.340Z,30.80
2018-09-12T12:24:15.536Z,30.70
2018-09-12T12:26:43.700Z,31.10
2018-09-12T12:29:11.895Z,31.30
2018-09-12T12:31:40.075Z,30.70
2018-09-12T12:34:08.262Z,30.80
2018-09-12T12:36:36.438Z,31.30
2018-09-12T12:39:06.904Z,31.00
2018-09-12T12:41:35.093Z,31.20
2018-09-12T12:44:03.269Z,31.30
2018-09-12T12:46:31.450Z,30.90
2018-09-12T12:48:59.649Z,30.80
2018-09-12T12:51:27.842Z,30.50
2018-09-12T12:53:56.011Z,30.40
2018-09-12T12:56:24.226Z,30.30
2018-09-12T12:58:52.494Z,30.50
2018-09-12T13:01:21.034Z,30.70
2018-09-12T13:03:49.237Z,30.50
2018-09-12T13:06:17.435Z,30.40
2018-09-12T13:08:45.600Z,30.50
2018-09-12T13:11:13.787Z,30.40
2018-09-12T13:13:41.963Z,30.70
2018-09-12T13:16:10.174Z,30.60
2018-09-12T13:18:39.173Z,30.30
2018-09-12T13:21:07.354Z,30.30
2018-09-12T13:23:35.529Z,30.40
2018-09-12T13:26:03.738Z,30.10
2018-09-12T13:28:31.923Z,30.20
2018-09-12T13:31:00.113Z,30.30
2018-09-12T13:33:28.281Z,30.70
2018-09-12T13:35:56.471Z,30.60
2018-09-12T13:38:24.629Z,30.60
2018-09-12T13:40:52.858Z,30.10
2018-09-12T13:43:21.054Z,30.20
2018-09-12T13:45:49.230Z,29.90
2018-09-12T13:48:17.421Z,30.10
2018-09-12T13:50:45.615Z,30.00
2018-09-12T13:53:13.785Z,30.20
2018-09-12T13:55:41.966Z,30.20
2018-09-12T13:58:10.139Z,30.30
2018-09-12T14:00:38.329Z,30.50
2018-09-12T14:03:06.585Z,30.50
2018-09-12T14:05:34.758Z,30.50
2018-09-12T14:08:02.932Z,30.60
2018-09-12T14:10:31.118Z,30.30
2018-09-12T14:12:59.362Z,30.50
2018-09-12T14:15:27.557Z,30.90
2018-09-12T14:17:55.738Z,30.90
2018-09-12T14:20:23.928Z,31.20
2018-09-12T14:22:52.139Z,31.40
2018-09-12T14:25:20.430Z,31.20
2018-09-12T14:27:48.617Z,31.50
2018-09-12T14:30:16.822Z,31.40
2018-09-12T14:32:44.995Z,31.40
2018-09-12T14:35:13.160Z,31.70
2018-09-12T14:37:41.342Z,31.90
2018-09-12T14:40:09.535Z,32.20
2018-09-12T14:42:37.722Z,32.20
2018-09-12T14:45:06.425Z,32.30
2018-09-12T14:47:34.599Z,33.20
2018-09-12T14:50:02.778Z,32.60
2018-09-12T14:52:30.954Z,32.70
2018-09-12T14:54:59.757Z,32.60
2018-09-12T14:57:27.936Z,32.70
2018-09-12T14:59:56.118Z,32.90
2018-09-12T15:02:25.070Z,33.10
2018-09-12T15:04:53.358Z,33.20
2018-09-12T15:07:21.506Z,33.20
2018-09-12T15:09:49.692Z,33.40
2018-09-12T15:12:17.883Z,33.50
2018-09-12T15:14:46.055Z,33.80
2018-09-12T15:17:14.305Z,34.00
2018-09-12T15:19:45.193Z,34.20
2018-09-12T15:22:13.442Z,34.40
2018-09-12T15:24:41.630Z,34.80
2018-09-12T15:27:09.815Z,34.80
2018-09-12T15:29:37.994Z,35.10
2018-09-12T15:32:06.250Z,35.00
2018-09-12T15:34:34.410Z,35.10
2018-09-12T15:37:02.684Z,35.10
2018-09-12T15:39:30.798Z,35.20
2018-09-12T15:41:58.965Z,35.40
2018-09-12T15:44:27.157Z,35.50
2018-09-12T15:46:55.421Z,35.60
2018-09-12T15:49:24.435Z,36.10
2018-09-12T15:51:59.023Z,36.30
2018-09-12T15:54:27.190Z,36.30
2018-09-12T15:56:55.470Z,36.40
2018-09-12T15:59:23.646Z,36.70
2018-09-12T16:01:54.261Z,36.80
2018-09-12T16:04:22.512Z,36.80
2018-09-12T16:06:51.427Z,37.10
2018-09-12T16:09:19.598Z,37.30
2018-09-12T16:11:48.030Z,38.20
2018-09-12T16:14:16.285Z,37.60
2018-09-12T16:16:44.553Z,37.70
2018-09-12T16:19:12.740Z,38.10
2018-09-12T16:21:40.920Z,38.30
2018-09-12T16:24:09.099Z,38.60
2018-09-12T16:26:37.282Z,38.80
2018-09-12T16:29:05.471Z,38.90
2018-09-12T16:31:33.654Z,39.40
2018-09-12T16:34:01.882Z,39.60
2018-09-12T16:36:30.101Z,39.70
2018-09-12T16:38:58.269Z,40.20
2018-09-12T16:41:26.516Z,40.50
2018-09-12T16:43:54.802Z,42.00
2018-09-12T16:46:22.980Z,43.70
2018-09-12T16:48:51.158Z,45.40
2018-09-12T16:51:19.337Z,45.50
2018-09-12T16:53:47.532Z,46.10
2018-09-12T16:56:15.863Z,46.70
2018-09-12T16:58:43.978Z,47.30
2018-09-12T17:01:12.167Z,47.80
2018-09-12T17:03:40.362Z,48.10
2018-09-12T17:06:08.555Z,48.90
2018-09-12T17:08:36.753Z,49.00
2018-09-12T17:11:04.933Z,49.00
2018-09-12T17:13:33.143Z,49.60
2018-09-12T17:16:01.331Z,49.70
2018-09-12T17:18:29.519Z,50.00
2018-09-12T17:20:57.693Z,50.70
2018-09-12T17:23:25.901Z,50.80
2018-09-12T17:25:54.077Z,51.20
2018-09-12T17:28:22.303Z,51.80
2018-09-12T17:30:51.086Z,51.70
2018-09-12T17:33:19.298Z,52.10
2018-09-12T17:35:47.589Z,52.20
2018-09-12T17:38:16.502Z,53.20
2018-09-12T17:40:44.690Z,52.70
2018-09-12T17:43:12.877Z,53.00
2018-09-12T17:45:41.071Z,53.30
2018-09-12T17:48:09.258Z,53.70
2018-09-12T17:50:37.449Z,53.50
2018-09-12T17:53:05.707Z,54.00
2018-09-12T17:55:33.956Z,54.20
2018-09-12T17:58:02.873Z,54.20
2018-09-12T18:00:31.940Z,54.50
2018-09-12T18:03:00.157Z,54.70
2018-09-12T18:05:28.549Z,55.30
2018-09-12T18:07:56.707Z,55.70
2018-09-12T18:10:25.088Z,55.90
2018-09-12T18:12:53.278Z,56.40
2018-09-12T18:15:21.535Z,56.20
2018-09-12T18:17:49.743Z,56.00
2018-09-12T18:20:17.933Z,56.30
2018-09-12T18:22:46.137Z,56.10
2018-09-12T18:25:14.311Z,57.20
2018-09-12T18:27:42.529Z,57.60
2018-09-12T18:30:11.489Z,57.30
2018-09-12T18:32:39.922Z,57.80
2018-09-12T18:35:08.162Z,58.10
2018-09-12T18:37:36.360Z,58.50
2018-09-12T18:40:04.890Z,58.10
2018-09-12T18:42:33.103Z,58.60
2018-09-12T18:45:01.409Z,58.50
2018-09-12T18:47:29.598Z,58.90
2018-09-12T18:49:57.915Z,59.30
2018-09-12T18:52:26.109Z,60.20
2018-09-12T18:54:54.291Z,59.30
2018-09-12T18:57:22.671Z,59.70
2018-09-12T18:59:50.951Z,60.20
2018-09-12T19:02:19.162Z,59.40
2018-09-12T19:04:47.395Z,59.80
2018-09-12T19:07:15.807Z,60.00
2018-09-12T19:09:43.845Z,60.70
2018-09-12T19:12:12.041Z,60.40
2018-09-12T19:14:40.254Z,61.10
2018-09-12T19:17:08.895Z,61.50
2018-09-12T19:19:37.086Z,60.70
2018-09-12T19:22:05.267Z,61.40
2018-09-12T19:24:37.090Z,61.20
2018-09-12T19:27:05.342Z,61.70
2018-09-12T19:29:33.547Z,62.00
2018-09-12T19:32:01.780Z,62.50
2018-09-12T19:34:30.318Z,61.90
2018-09-12T19:36:58.617Z,62.50
2018-09-12T19:39:27.380Z,63.60
2018-09-12T19:41:55.589Z,62.90
2018-09-12T19:44:23.884Z,63.50
2018-09-12T19:46:52.162Z,63.00
2018-09-12T19:49:20.488Z,63.40
2018-09-12T19:51:48.702Z,63.60
2018-09-12T19:54:17.053Z,63.30
2018-09-12T19:56:45.334Z,63.10
2018-09-12T19:59:14.409Z,63.80
2018-09-12T20:01:42.646Z,63.70
2018-09-12T20:04:11.014Z,64.30
2018-09-12T20:06:39.274Z,64.50
2018-09-12T20:09:10.299Z,65.20
2018-09-12T20:11:39.431Z,64.80
2018-09-12T20:14:07.640Z,64.80
2018-09-12T20:16:35.898Z,65.20
2018-09-12T20:19:04.138Z,64.90
2018-09-12T20:21:32.383Z,65.70
2018-09-12T20:24:00.864Z,65.60
2018-09-12T20:26:29.871Z,66.10
2018-09-12T20:28:58.683Z,65.40
2018-09-12T20:31:27.071Z,65.80
2018-09-12T20:33:55.328Z,66.60
2018-09-12T20:36:23.499Z,66.30
2018-09-12T20:38:51.693Z,66.80
2018-09-12T20:41:19.904Z,66.80
2018-09-12T20:43:48.146Z,66.80
2018-09-12T20:46:16.342Z,67.10
2018-09-12T20:48:45.390Z,67.00
2018-09-12T20:51:14.593Z,66.70
2018-09-12T20:53:42.876Z,67.10
2018-09-12T20:56:11.098Z,66.30
2018-09-12T20:58:39.376Z,67.30
2018-09-12T21:01:07.591Z,67.50
2018-09-12T21:03:35.790Z,67.30
2018-09-12T21:06:03.994Z,67.80
2018-09-12T21:08:32.190Z,67.80
2018-09-12T21:11:00.407Z,67.80
2018-09-12T21:13:28.565Z,68.10
2018-09-12T21:15:56.778Z,68.20
2018-09-12T21:18:24.972Z,68.20
2018-09-12T21:20:53.172Z,68.40
2018-09-12T21:23:21.369Z,68.40
2018-09-12T21:25:49.571Z,68.70
2018-09-12T21:28:17.750Z,69.50
2018-09-12T21:30:45.939Z,68.50
2018-09-12T21:33:14.137Z,68.40
2018-09-12T21:35:42.321Z,68.60
2018-09-12T21:38:10.487Z,69.60
2018-09-12T21:40:38.869Z,69.90
2018-09-12T21:43:07.107Z,69.80
2018-09-12T21:45:35.307Z,69.80
2018-09-12T21:48:03.495Z,70.20
2018-09-12T21:50:31.746Z,70.10
2018-09-12T21:52:59.934Z,70.10
2018-09-12T21:55:28.130Z,70.80
2018-09-12T21:57:56.317Z,70.40
2018-09-12T22:00:24.506Z,70.80
2018-09-12T22:02:52.690Z,70.20
2018-09-12T22:05:20.895Z,70.80
2018-09-12T22:07:49.128Z,70.90
2018-09-12T22:10:17.306Z,71.00
2018-09-12T22:12:45.482Z,71.00
2018-09-12T22:15:13.721Z,71.50
2018-09-12T22:17:41.918Z,71.10
2018-09-12T22:20:10.088Z,71.10
2018-09-12T22:22:38.281Z,71.20
2018-09-12T22:25:07.021Z,71.30
2018-09-12T22:27:35.213Z,71.70
2018-09-12T22:30:03.430Z,71.40
2018-09-12T22:32:31.613Z,71.50
2018-09-12T22:34:59.814Z,71.90
2018-09-12T22:37:27.994Z,71.70
2018-09-12T22:39:56.174Z,72.20
2018-09-12T22:42:24.370Z,72.50
2018-09-12T22:44:52.998Z,72.00
2018-09-12T22:47:21.188Z,72.70
2018-09-12T22:49:49.369Z,72.00
2018-09-12T22:52:17.557Z,72.10
2018-09-12T22:54:45.746Z,72.80
2018-09-12T22:57:13.962Z,72.90
2018-09-12T22:59:42.155Z,74.00
2018-09-12T23:02:10.342Z,73.50
2018-09-12T23:04:39.067Z,73.50
2018-09-12T23:07:07.263Z,73.50
2018-09-12T23:09:35.465Z,73.80
2018-09-12T23:12:04.719Z,74.00
2018-09-12T23:14:32.886Z,73.60
2018-09-12T23:17:01.166Z,73.90
2018-09-12T23:19:29.286Z,74.40
2018-09-12T23:21:57.473Z,74.20
2018-09-12T23:24:25.686Z,74.10
2018-09-12T23:26:53.894Z,74.40
2018-09-12T23:29:22.065Z,74.10
2018-09-12T23:31:50.257Z,74.20
2018-09-12T23:34:18.462Z,74.40
2018-09-12T23:36:46.673Z,74.30
2018-09-12T23:39:14.882Z,74.40
2018-09-12T23:41:43.070Z,74.20
2018-09-12T23:44:11.530Z,74.30
2018-09-12T23:46:39.746Z,74.50
2018-09-12T23:49:08.599Z,74.70
2018-09-12T23:51:36.801Z,75.20
2018-09-12T23:54:05.002Z,76.10
2018-09-12T23:56:33.214Z,75.90
2018-09-12T23:59:01.392Z,74.70
